createdAt,value
2023-01-13T00:01:38.456Z,1.20
2023-01-13T00:05:12.052Z,1.08
2023-01-13T00:08:44.124Z,0.80
2023-01-13T00:12:19.206Z,1.08
2023-01-13T00:16:02.659Z,0.73
2023-01-13T00:19:34.744Z,1.00
2023-01-13T00:23:06.544Z,0.83
2023-01-13T00:26:38.547Z,0.80
2023-01-13T00:30:10.880Z,0.93
2023-01-13T00:33:44.266Z,0.87
2023-01-13T00:37:16.279Z,0.65
2023-01-13T00:40:56.999Z,0.80
2023-01-13T00:44:28.711Z,0.83
2023-01-13T00:48:00.759Z,0.57
2023-01-13T00:51:32.621Z,0.70
2023-01-13T00:55:06.033Z,0.75
2023-01-13T00:58:38.192Z,0.47
2023-01-13T01:02:10.920Z,0.90
2023-01-13T01:05:43.521Z,1.10
2023-01-13T01:09:16.574Z,0.70
2023-01-13T01:12:48.462Z,1.25
2023-01-13T01:16:24.403Z,1.27
2023-01-13T01:19:56.269Z,0.80
2023-01-13T01:23:29.433Z,1.00
2023-01-13T01:27:02.187Z,0.75
2023-01-13T01:30:34.469Z,0.70
2023-01-13T01:34:06.160Z,0.70
2023-01-13T01:37:39.252Z,0.63
2023-01-13T01:41:24.850Z,0.60
2023-01-13T01:45:01.979Z,0.23
2023-01-13T01:48:39.033Z,0.65
2023-01-13T01:52:14.956Z,0.65
2023-01-13T01:55:47.956Z,0.77
2023-01-13T01:59:20.233Z,0.50
2023-01-13T02:02:52.972Z,0.55
2023-01-13T02:06:25.398Z,0.57
2023-01-13T02:10:01.205Z,0.70
2023-01-13T02:13:34.053Z,1.00
2023-01-13T02:17:21.848Z,0.80
2023-01-13T02:21:28.086Z,0.60
2023-01-13T02:25:19.973Z,0.57
2023-01-13T02:29:37.843Z,0.70
2023-01-13T02:33:21.504Z,0.60
2023-01-13T02:37:02.033Z,0.70
2023-01-13T02:41:24.986Z,0.57
2023-01-13T02:45:30.207Z,0.40
2023-01-13T02:49:06.621Z,1.10
2023-01-13T02:52:44.926Z,0.75
2023-01-13T02:56:18.158Z,0.88
2023-01-13T02:59:52.685Z,0.67
2023-01-13T03:03:25.015Z,1.67
2023-01-13T03:07:12.910Z,0.68
2023-01-13T03:10:47.845Z,0.40
2023-01-13T03:14:30.452Z,1.45
2023-01-13T03:18:47.702Z,0.70
2023-01-13T03:22:32.390Z,1.15
2023-01-13T03:26:14.244Z,0.80
2023-01-13T03:30:04.953Z,0.47
2023-01-13T03:33:47.410Z,1.05
2023-01-13T03:37:23.292Z,0.40
2023-01-13T03:41:09.540Z,0.30
2023-01-13T03:44:49.863Z,1.02
2023-01-13T03:48:25.771Z,1.33
2023-01-13T03:52:02.970Z,0.77
2023-01-13T03:55:40.989Z,0.63
2023-01-13T03:59:20.598Z,0.57
2023-01-13T04:03:11.971Z,0.40
2023-01-13T04:06:58.068Z,0.80
2023-01-13T04:10:38.981Z,0.65
2023-01-13T04:14:13.208Z,0.83
2023-01-13T04:17:45.346Z,0.80
2023-01-13T04:21:17.208Z,0.40
2023-01-13T04:24:49.348Z,0.70
2023-01-13T04:28:21.389Z,0.65
2023-01-13T04:31:53.795Z,0.65
2023-01-13T04:35:26.793Z,0.82
2023-01-13T04:38:59.242Z,1.43
2023-01-13T04:42:31.015Z,0.60
2023-01-13T04:46:03.938Z,0.57
2023-01-13T04:49:35.890Z,0.47
2023-01-13T04:53:08.366Z,0.30
2023-01-13T04:56:40.186Z,0.45
2023-01-13T05:00:15.213Z,0.60
2023-01-13T05:03:47.559Z,0.63
2023-01-13T05:07:19.760Z,0.90
2023-01-13T05:10:52.600Z,0.50
2023-01-13T05:14:43.604Z,0.50
2023-01-13T05:18:16.619Z,0.80
2023-01-13T05:22:07.857Z,1.13
2023-01-13T05:25:44.078Z,0.50
2023-01-13T05:29:16.383Z,0.50
2023-01-13T05:32:48.512Z,0.50
2023-01-13T05:36:20.910Z,0.47
2023-01-13T05:40:11.664Z,0.38
2023-01-13T05:43:44.003Z,0.52
2023-01-13T05:47:16.083Z,0.50
2023-01-13T05:50:49.591Z,0.40
2023-01-13T05:54:21.347Z,0.52
2023-01-13T05:57:53.402Z,0.80
2023-01-13T06:01:25.215Z,0.40
2023-01-13T06:04:57.270Z,0.77
2023-01-13T06:08:29.555Z,0.25
2023-01-13T06:12:02.052Z,0.60
2023-01-13T06:15:33.824Z,0.60
2023-01-13T06:19:09.817Z,0.47
2023-01-13T06:22:48.133Z,0.35
2023-01-13T06:26:23.002Z,0.70
2023-01-13T06:29:57.425Z,0.40
2023-01-13T06:33:46.669Z,0.50
2023-01-13T06:37:21.503Z,0.40
2023-01-13T06:40:55.234Z,0.63
2023-01-13T06:44:27.763Z,0.50
2023-01-13T06:48:00.773Z,0.90
2023-01-13T06:51:32.720Z,0.68
2023-01-13T06:55:05.086Z,1.42
2023-01-13T06:58:37.529Z,1.10
2023-01-13T07:02:09.637Z,1.17
2023-01-13T07:05:44.003Z,0.60
2023-01-13T07:09:16.240Z,0.80
2023-01-13T07:13:08.197Z,0.47
2023-01-13T07:16:40.730Z,0.50
2023-01-13T07:20:12.848Z,0.75
2023-01-13T07:23:45.085Z,0.80
2023-01-13T07:27:17.001Z,0.70
2023-01-13T07:30:50.335Z,0.68
2023-01-13T07:34:22.028Z,1.00
2023-01-13T07:37:54.181Z,0.83
2023-01-13T07:41:44.730Z,1.10
2023-01-13T07:45:17.086Z,1.00
2023-01-13T07:48:49.187Z,1.00
2023-01-13T07:52:21.271Z,0.77
2023-01-13T07:55:59.901Z,0.70
2023-01-13T07:59:31.912Z,0.83
2023-01-13T08:03:04.891Z,0.50
2023-01-13T08:06:39.815Z,0.88
2023-01-13T08:10:11.733Z,0.70
2023-01-13T08:13:44.271Z,0.30
2023-01-13T08:17:16.180Z,0.60
2023-01-13T08:20:49.244Z,1.00
2023-01-13T08:24:21.051Z,1.00
2023-01-13T08:27:53.736Z,1.15
2023-01-13T08:31:25.618Z,1.52
2023-01-13T08:34:57.648Z,2.83
2023-01-13T08:38:29.379Z,2.90
2023-01-13T08:42:02.376Z,2.70
2023-01-13T08:45:34.957Z,2.08
2023-01-13T08:49:07.125Z,0.80
2023-01-13T08:52:39.029Z,1.10
2023-01-13T08:56:11.852Z,0.93
2023-01-13T08:59:43.931Z,0.70
2023-01-13T09:03:15.958Z,0.80
2023-01-13T09:06:47.887Z,0.88
2023-01-13T09:10:20.514Z,1.87
2023-01-13T09:13:52.458Z,1.45
2023-01-13T09:17:24.620Z,1.20
2023-01-13T09:20:57.121Z,1.30
2023-01-13T09:24:29.761Z,1.43
2023-01-13T09:28:01.681Z,1.55
2023-01-13T09:31:34.635Z,1.13
2023-01-13T09:35:07.717Z,1.70
2023-01-13T09:38:39.779Z,1.20
2023-01-13T09:42:44.966Z,0.70
2023-01-13T09:46:43.323Z,0.80
2023-01-13T09:50:15.076Z,0.75
2023-01-13T09:53:57.036Z,1.02
2023-01-13T09:57:32.637Z,0.38
2023-01-13T10:01:29.635Z,0.77
2023-01-13T10:05:11.324Z,0.88
2023-01-13T10:08:45.608Z,0.57
2023-01-13T10:12:42.314Z,0.90
2023-01-13T10:16:44.485Z,0.43
2023-01-13T10:20:29.107Z,0.85
2023-01-13T10:24:10.419Z,0.90
2023-01-13T10:27:43.803Z,1.05
2023-01-13T10:31:17.730Z,0.80
2023-01-13T10:34:51.697Z,1.20
2023-01-13T10:38:30.020Z,0.93
2023-01-13T10:42:07.242Z,0.80
2023-01-13T10:45:39.361Z,1.13
2023-01-13T10:49:36.233Z,1.50
2023-01-13T10:53:23.916Z,0.40
2023-01-13T10:57:19.859Z,0.70
2023-01-13T11:01:04.071Z,0.70
2023-01-13T11:04:42.553Z,0.38
2023-01-13T11:08:20.997Z,0.30
2023-01-13T11:11:56.473Z,0.57
2023-01-13T11:15:56.924Z,0.83
2023-01-13T11:19:32.286Z,0.60
2023-01-13T11:23:17.670Z,0.80
2023-01-13T11:27:07.445Z,1.20
2023-01-13T11:30:55.094Z,1.10
2023-01-13T11:34:39.208Z,0.93
2023-01-13T11:38:17.577Z,0.70
2023-01-13T11:42:21.426Z,0.50
2023-01-13T11:45:58.465Z,0.40
2023-01-13T11:49:33.547Z,0.52
2023-01-13T11:53:11.456Z,0.20
2023-01-13T11:56:55.314Z,0.32
2023-01-13T12:00:44.609Z,0.30
2023-01-13T12:04:54.639Z,0.37
2023-01-13T12:08:48.583Z,0.90
2023-01-13T12:12:44.913Z,0.80
2023-01-13T12:16:28.499Z,0.70
2023-01-13T12:20:18.919Z,1.48
2023-01-13T12:24:28.116Z,1.80
2023-01-13T12:28:39.623Z,1.67
2023-01-13T12:32:23.743Z,1.60
2023-01-13T12:36:04.356Z,1.02
2023-01-13T12:39:51.449Z,0.77
2023-01-13T12:43:43.248Z,1.30
2023-01-13T12:47:34.412Z,1.60
2023-01-13T12:51:27.905Z,1.35
2023-01-13T12:55:02.075Z,1.33
2023-01-13T12:58:34.110Z,0.80
2023-01-13T13:02:11.967Z,0.80
2023-01-13T13:05:58.253Z,0.60
2023-01-13T13:09:37.888Z,0.60
2023-01-13T13:13:40.125Z,0.90
2023-01-13T13:17:25.374Z,0.85
2023-01-13T13:21:04.781Z,1.00
2023-01-13T13:24:36.702Z,1.05
2023-01-13T13:28:18.057Z,1.00
2023-01-13T13:32:28.507Z,0.67
2023-01-13T13:36:19.242Z,0.55
2023-01-13T13:40:10.078Z,0.70
2023-01-13T13:44:03.445Z,0.90
2023-01-13T13:47:39.500Z,1.10
2023-01-13T13:51:41.037Z,1.48
2023-01-13T13:55:19.906Z,1.10
2023-01-13T13:58:52.830Z,1.10
2023-01-13T14:02:34.772Z,1.10
2023-01-13T14:06:08.043Z,1.10
2023-01-13T14:10:17.859Z,1.77
2023-01-13T14:14:01.995Z,1.58
2023-01-13T14:17:34.595Z,1.23
2023-01-13T14:21:20.103Z,1.20
2023-01-13T14:24:58.609Z,1.70
2023-01-13T14:28:35.754Z,1.35
2023-01-13T14:32:08.257Z,0.75
2023-01-13T14:36:17.866Z,0.70
2023-01-13T14:39:50.055Z,0.98
2023-01-13T14:43:24.688Z,0.70
2023-01-13T14:47:00.859Z,0.60
2023-01-13T14:50:34.669Z,0.60
2023-01-13T14:54:46.023Z,0.80
2023-01-13T14:58:20.958Z,0.40
2023-01-13T15:01:54.810Z,0.50
2023-01-13T15:05:26.748Z,0.63
2023-01-13T15:08:59.061Z,0.40
2023-01-13T15:12:40.870Z,0.57
2023-01-13T15:16:25.575Z,0.45
2023-01-13T15:19:57.348Z,0.30
2023-01-13T15:23:29.460Z,0.40
2023-01-13T15:27:11.232Z,0.20
2023-01-13T15:30:43.351Z,0.28
2023-01-13T15:34:15.063Z,0.30
2023-01-13T15:37:48.679Z,0.20
2023-01-13T15:41:39.064Z,0.25
2023-01-13T15:45:32.703Z,0.20
2023-01-13T15:49:15.884Z,0.13
2023-01-13T15:52:49.083Z,0.40
2023-01-13T15:56:26.684Z,0.60
2023-01-13T16:00:01.512Z,0.30
2023-01-13T16:03:36.287Z,0.38
2023-01-13T16:07:17.969Z,0.47
2023-01-13T16:10:50.598Z,0.82
2023-01-13T16:14:22.574Z,0.30
2023-01-13T16:17:59.969Z,0.52
2023-01-13T16:21:31.993Z,0.32
2023-01-13T16:25:03.895Z,1.23
2023-01-13T16:28:36.084Z,0.50
2023-01-13T16:32:08.628Z,0.50
2023-01-13T16:35:43.845Z,0.50
2023-01-13T16:39:33.481Z,0.55
2023-01-13T16:43:06.912Z,0.65
2023-01-13T16:46:39.250Z,0.90
2023-01-13T16:50:29.117Z,0.90
2023-01-13T16:54:01.268Z,0.52
2023-01-13T16:57:33.041Z,0.50
2023-01-13T17:01:12.462Z,0.90
2023-01-13T17:04:44.351Z,0.68
2023-01-13T17:08:18.096Z,1.10
2023-01-13T17:11:50.982Z,0.83
2023-01-13T17:15:23.105Z,1.40
2023-01-13T17:18:55.505Z,0.95
2023-01-13T17:22:27.560Z,0.88
2023-01-13T17:25:59.325Z,0.93
2023-01-13T17:29:33.000Z,0.95
2023-01-13T17:33:04.732Z,1.20
2023-01-13T17:36:37.935Z,2.07
2023-01-13T17:40:10.676Z,1.70
2023-01-13T17:43:42.793Z,1.23
2023-01-13T17:47:16.179Z,1.37
2023-01-13T17:50:48.630Z,1.58
2023-01-13T17:54:21.542Z,1.42
2023-01-13T17:57:53.633Z,1.73
2023-01-13T18:01:30.845Z,1.00
2023-01-13T18:05:03.207Z,1.15
2023-01-13T18:08:35.233Z,1.08
2023-01-13T18:12:07.524Z,0.77
2023-01-13T18:15:39.374Z,1.23
2023-01-13T18:19:29.989Z,1.02
2023-01-13T18:23:20.823Z,0.60
2023-01-13T18:27:11.629Z,0.80
2023-01-13T18:30:43.729Z,1.05
2023-01-13T18:34:15.878Z,0.85
2023-01-13T18:37:48.079Z,1.20
2023-01-13T18:41:38.868Z,0.70
2023-01-13T18:45:10.977Z,1.27
2023-01-13T18:48:43.160Z,0.80
2023-01-13T18:52:15.029Z,1.00
2023-01-13T18:55:47.312Z,0.70
2023-01-13T18:59:19.252Z,1.03
2023-01-13T19:06:40.229Z,0.88
2023-01-13T19:10:13.382Z,1.20
2023-01-13T19:13:46.618Z,1.23
2023-01-13T19:17:18.820Z,1.77
2023-01-13T19:20:51.082Z,1.33
2023-01-13T19:24:26.117Z,1.20
2023-01-13T19:27:58.278Z,1.23
2023-01-13T19:31:30.960Z,1.35
2023-01-13T19:35:02.752Z,0.97
2023-01-13T19:38:36.947Z,1.05
2023-01-13T19:42:29.891Z,1.05
2023-01-13T19:46:02.228Z,1.70
2023-01-13T19:49:34.230Z,1.37
2023-01-13T19:53:08.065Z,1.70
2023-01-13T19:56:40.070Z,0.52
2023-01-13T20:00:18.252Z,0.80
2023-01-13T20:03:50.599Z,1.45
2023-01-13T20:07:24.980Z,0.57
2023-01-13T20:11:16.850Z,0.53
2023-01-13T20:14:50.109Z,0.57
2023-01-13T20:18:24.388Z,0.63
2023-01-13T20:21:56.959Z,0.40
2023-01-13T20:25:29.140Z,0.57
2023-01-13T20:29:01.335Z,0.77
2023-01-13T20:32:33.190Z,0.50
2023-01-13T20:36:07.979Z,0.40
2023-01-13T20:39:42.896Z,0.60
2023-01-13T20:43:17.580Z,0.40
2023-01-13T20:46:49.609Z,0.60
2023-01-13T20:50:21.925Z,0.22
2023-01-13T20:53:53.811Z,0.55
2023-01-13T20:57:25.886Z,0.75
2023-01-13T21:01:01.535Z,0.60
2023-01-13T21:04:34.111Z,1.00
2023-01-13T21:08:05.899Z,0.45
2023-01-13T21:11:56.940Z,0.40
2023-01-13T21:15:29.013Z,0.35
2023-01-13T21:19:07.079Z,0.90
2023-01-13T21:22:39.225Z,0.90
2023-01-13T21:26:12.713Z,0.57
2023-01-13T21:29:45.594Z,0.30
2023-01-13T21:33:17.617Z,0.40
2023-01-13T21:36:49.594Z,0.77
2023-01-13T21:40:22.007Z,0.40
2023-01-13T21:44:12.165Z,0.25
2023-01-13T21:47:50.566Z,0.40
2023-01-13T21:51:22.435Z,0.55
2023-01-13T21:55:21.045Z,0.20
2023-01-13T21:58:52.993Z,0.60
2023-01-13T22:02:35.756Z,0.30
2023-01-13T22:06:08.461Z,0.30
2023-01-13T22:09:40.776Z,0.88
2023-01-13T22:13:30.722Z,0.30
2023-01-13T22:17:04.522Z,0.35
2023-01-13T22:20:36.976Z,0.20
2023-01-13T22:24:09.554Z,0.10
2023-01-13T22:27:44.414Z,0.25
2023-01-13T22:31:19.245Z,0.32
2023-01-13T22:34:51.023Z,0.50
2023-01-13T22:38:23.868Z,0.40
2023-01-13T22:41:56.660Z,0.30
2023-01-13T22:45:29.171Z,0.40
2023-01-13T22:49:00.882Z,0.57
2023-01-13T22:52:33.989Z,0.40
2023-01-13T22:56:09.252Z,0.22
2023-01-13T22:59:41.359Z,0.23
2023-01-13T23:03:14.132Z,0.20
2023-01-13T23:06:46.209Z,0.40
2023-01-13T23:10:19.258Z,0.53
2023-01-13T23:13:57.424Z,0.20
2023-01-13T23:17:29.170Z,0.20
2023-01-13T23:21:10.233Z,0.30
2023-01-13T23:24:41.996Z,0.40
2023-01-13T23:28:14.059Z,0.30
2023-01-13T23:31:46.056Z,0.60
2023-01-13T23:35:18.153Z,0.30
2023-01-13T23:38:50.565Z,0.60
2023-01-13T23:42:22.676Z,0.38
2023-01-13T23:46:05.409Z,0.70
2023-01-13T23:49:37.683Z,0.25
2023-01-13T23:53:09.461Z,0.47
2023-01-13T23:56:41.448Z,0.30
